Time;durP1;ratioP1;P1;durP2;ratioP2;P2;SDS_P1;SDS_P2;PMS_P1;PMS_P2;Temp;Humidity;BMP_temperature;BMP_pressure;BME280_temperature;BME280_humidity;BME280_pressure;Samples;Min_cycle;Max_cycle;Signal;HPM_P1;HPM_P2
2022/01/28 00:01:53;;;;;;;13.77;1.75;;;5.80;99.90;;;;;;4144904;28;20055;-82
2022/01/28 00:04:01;;;;;;;10.20;1.42;;;5.00;99.90;;;;;;4101159;28;20075;-82
2022/01/28 00:06:03;;;;;;;17.35;2.42;;;5.80;99.90;;;;;;4128297;28;20050;-82
2022/01/28 00:08:05;;;;;;;9.00;1.25;;;4.70;99.90;;;;;;4124216;28;20042;-82
2022/01/28 00:10:06;;;;;;;7.65;1.00;;;4.60;99.90;;;;;;4113560;28;20098;-82
2022/01/28 00:12:08;;;;;;;9.18;0.98;;;4.50;99.90;;;;;;4121281;28;20073;-82
2022/01/28 00:14:21;;;;;;;8.52;0.95;;;4.40;99.90;;;;;;4131736;28;20106;-82
2022/01/28 00:16:49;;;;;;;8.43;1.42;;;4.30;99.90;;;;;;4146407;28;20084;-82
2022/01/28 00:39:17;;;;;;;6.20;1.20;;;4.30;99.90;;;;;;4137931;28;20077;-83
2022/01/28 00:41:17;;;;;;;18.48;1.73;;;4.90;99.90;;;;;;4137481;28;20491;-82
2022/01/28 00:43:18;;;;;;;16.98;3.72;;;4.30;99.90;;;;;;4111115;28;20109;-82
2022/01/28 00:45:22;;;;;;;19.33;2.33;;;4.40;99.90;;;;;;4135672;28;20550;-82
2022/01/28 00:47:23;;;;;;;18.38;1.70;;;4.40;99.90;;;;;;4131044;28;20046;-82
2022/01/28 00:49:25;;;;;;;12.65;2.72;;;5.80;99.90;;;;;;4137506;28;20049;-83
2022/01/28 00:51:28;;;;;;;21.70;2.13;;;4.60;99.90;;;;;;4116809;28;20055;-82
2022/01/28 00:53:29;;;;;;;20.25;2.28;;;4.60;99.90;;;;;;4113574;28;20059;-83
2022/01/28 00:55:30;;;;;;;25.02;2.58;;;4.60;99.90;;;;;;4112681;28;20459;-83
2022/01/28 00:57:30;;;;;;;14.93;2.22;;;5.50;99.90;;;;;;4147391;28;20057;-83
2022/01/28 00:59:31;;;;;;;12.15;2.05;;;4.60;99.90;;;;;;4105278;28;20852;-82
2022/01/28 01:01:32;;;;;;;8.60;2.15;;;4.60;99.90;;;;;;4118495;28;20082;-82
2022/01/28 01:03:32;;;;;;;21.13;2.63;;;4.60;99.90;;;;;;4147942;28;20045;-82
2022/01/28 01:05:34;;;;;;;9.40;1.50;;;4.60;99.90;;;;;;4149417;28;20099;-83
2022/01/28 01:07:35;;;;;;;9.32;1.67;;;4.50;99.90;;;;;;4121857;28;20500;-82
2022/01/28 01:09:36;;;;;;;13.25;1.40;;;4.50;99.90;;;;;;4119684;28;20050;-82
2022/01/28 01:11:40;;;;;;;10.45;1.38;;;4.50;99.90;;;;;;4120232;28;20050;-82
2022/01/28 01:13:42;;;;;;;12.02;1.80;;;4.50;99.90;;;;;;4122949;28;20050;-82
2022/01/28 01:15:48;;;;;;;9.93;2.17;;;4.40;99.90;;;;;;4119895;28;20109;-82
2022/01/28 01:20:12;;;;;;;13.77;1.60;;;4.40;99.90;;;;;;4134447;28;20058;-82
2022/01/28 01:22:13;;;;;;;7.50;1.30;;;4.30;99.90;;;;;;4120882;28;20121;-82
2022/01/28 01:24:22;;;;;;;18.15;1.77;;;4.30;99.90;;;;;;4120645;28;20046;-82
2022/01/28 01:26:35;;;;;;;5.80;2.38;;;4.40;99.90;;;;;;4138283;28;20046;-82
2022/01/28 01:28:38;;;;;;;10.65;1.50;;;4.30;99.90;;;;;;4122672;28;20514;-82
2022/01/28 01:30:42;;;;;;;10.45;2.10;;;4.40;99.90;;;;;;4130367;28;20558;-82
2022/01/28 01:32:44;;;;;;;10.45;2.55;;;4.10;99.90;;;;;;4125963;28;20045;-83
2022/01/28 01:34:46;;;;;;;11.88;2.03;;;4.60;99.90;;;;;;4140156;28;20570;-82
2022/01/28 01:36:48;;;;;;;14.93;2.42;;;4.40;99.90;;;;;;4119866;28;20042;-82
2022/01/28 01:38:49;;;;;;;11.85;1.85;;;4.40;99.90;;;;;;4111253;28;20422;-82
2022/01/28 01:40:54;;;;;;;12.20;1.45;;;5.10;99.90;;;;;;4141511;28;20486;-82
2022/01/28 01:43:08;;;;;;;11.65;1.85;;;4.40;99.90;;;;;;4124440;28;20519;-82
2022/01/28 01:52:09;;;;;;;15.07;1.90;;;4.60;99.90;;;;;;4142974;28;20057;-82
2022/01/28 01:54:11;;;;;;;13.73;2.28;;;4.50;99.90;;;;;;4102871;28;20126;-82
2022/01/28 01:56:12;;;;;;;9.73;1.45;;;4.50;99.90;;;;;;4125739;28;20081;-82
2022/01/28 01:58:13;;;;;;;19.55;1.73;;;5.20;99.90;;;;;;4142220;28;20038;-84
2022/01/28 02:00:16;;;;;;;13.45;1.80;;;4.60;99.90;;;;;;4134398;28;20097;-84
2022/01/28 02:02:17;;;;;;;15.98;2.83;;;4.60;99.90;;;;;;4138032;28;20046;-84
2022/01/28 02:04:19;;;;;;;20.10;2.55;;;4.70;99.90;;;;;;4124673;28;20101;-84
2022/01/28 02:06:21;;;;;;;19.92;1.90;;;4.70;99.90;;;;;;4119236;28;20074;-84
2022/01/28 02:08:22;;;;;;;12.15;1.73;;;4.70;99.90;;;;;;4101099;28;20047;-82
2022/01/28 02:10:23;;;;;;;21.60;1.60;;;5.90;99.90;;;;;;4130369;28;20042;-83
2022/01/28 02:12:23;;;;;;;24.63;2.45;;;4.80;99.90;;;;;;4115651;28;20125;-81
2022/01/28 02:14:25;;;;;;;21.73;2.05;;;4.90;99.90;;;;;;4135339;28;20042;-82
2022/01/28 02:16:27;;;;;;;13.05;1.73;;;4.90;99.90;;;;;;4143238;28;20041;-82
2022/01/28 02:18:27;;;;;;;10.18;1.85;;;5.30;99.90;;;;;;4120015;28;20050;-82
2022/01/28 02:20:35;;;;;;;14.07;2.00;;;5.00;99.90;;;;;;4116950;28;20046;-82
2022/01/28 02:22:36;;;;;;;17.63;3.47;;;5.00;99.90;;;;;;4135115;28;20597;-82
2022/01/28 02:24:42;;;;;;;14.05;2.25;;;5.10;99.90;;;;;;4111760;28;20090;-82
2022/01/28 02:26:43;;;;;;;20.50;2.58;;;5.10;99.90;;;;;;4128749;28;20043;-82
2022/01/28 02:28:53;;;;;;;27.48;2.05;;;5.10;99.90;;;;;;4134481;28;20076;-82
2022/01/28 02:30:54;;;;;;;10.80;2.38;;;5.10;99.90;;;;;;4135404;28;20125;-82
2022/01/28 02:33:09;;;;;;;20.88;2.42;;;5.10;99.90;;;;;;4127958;28;20165;-82
2022/01/28 02:35:10;;;;;;;7.93;2.00;;;5.10;99.90;;;;;;4137419;28;20038;-82
2022/01/28 02:37:10;;;;;;;8.85;1.67;;;5.10;99.90;;;;;;4109808;28;20050;-82
2022/01/28 02:39:12;;;;;;;12.02;3.10;;;5.80;99.90;;;;;;4107809;28;20042;-82
2022/01/28 02:41:12;;;;;;;16.38;1.70;;;5.10;99.90;;;;;;4124084;28;20085;-83
2022/01/28 02:43:26;;;;;;;17.83;2.25;;;5.10;99.90;;;;;;4145362;28;20084;-83
2022/01/28 02:45:33;;;;;;;18.52;2.00;;;5.00;99.90;;;;;;4141272;28;20046;-83
2022/01/28 02:47:37;;;;;;;20.17;3.13;;;5.40;99.90;;;;;;4119581;28;20054;-82
2022/01/28 02:49:38;;;;;;;18.95;1.83;;;5.00;99.90;;;;;;4123629;28;20042;-82
2022/01/28 02:51:39;;;;;;;22.42;3.63;;;5.60;99.90;;;;;;4139135;28;20081;-83
2022/01/28 02:53:52;;;;;;;13.40;2.13;;;5.40;99.90;;;;;;4136424;28;20049;-82
2022/01/28 02:55:59;;;;;;;25.63;2.45;;;5.70;99.90;;;;;;4116149;28;20488;-83
2022/01/28 02:58:16;;;;;;;13.63;1.73;;;5.00;99.90;;;;;;4122224;28;20043;-82
2022/01/28 03:00:17;;;;;;;19.70;2.03;;;5.10;99.90;;;;;;4136520;28;20105;-83
2022/01/28 03:02:18;;;;;;;18.05;2.65;;;5.10;99.90;;;;;;4127620;28;20050;-82
2022/01/28 03:06:41;;;;;;;21.90;4.15;;;5.10;99.90;;;;;;4106804;28;20055;-83
2022/01/28 03:08:49;;;;;;;10.88;2.15;;;5.10;99.90;;;;;;4144977;28;20505;-83
2022/01/28 03:13:28;;;;;;;20.17;2.08;;;5.10;99.90;;;;;;4105219;28;20050;-83
2022/01/28 03:15:32;;;;;;;15.77;3.28;;;5.10;99.90;;;;;;4118887;28;20058;-82
2022/01/28 03:19:52;;;;;;;17.23;2.45;;;5.10;99.90;;;;;;4135640;28;20058;-82
2022/01/28 03:21:55;;;;;;;13.23;1.98;;;5.10;99.90;;;;;;4115546;28;20121;-82
2022/01/28 03:23:57;;;;;;;12.63;1.75;;;5.10;99.90;;;;;;4142994;28;20069;-82
2022/01/28 03:25:57;;;;;;;16.27;1.42;;;5.10;99.90;;;;;;4122585;28;20078;-82
2022/01/28 03:28:00;;;;;;;15.35;2.05;;;5.10;99.90;;;;;;4122796;28;20491;-82
2022/01/28 03:30:00;;;;;;;19.13;1.77;;;5.10;99.90;;;;;;4125174;28;20780;-83
2022/01/28 03:32:01;;;;;;;14.23;2.05;;;5.10;99.90;;;;;;4122857;28;20104;-83
2022/01/28 03:34:02;;;;;;;16.58;2.33;;;5.10;99.90;;;;;;4128625;28;20073;-82
2022/01/28 03:36:07;;;;;;;9.88;1.10;;;5.10;99.90;;;;;;4123485;28;20400;-82
2022/01/28 03:38:12;;;;;;;11.80;1.70;;;5.20;99.90;;;;;;4127348;28;20095;-82
2022/01/28 03:40:18;;;;;;;24.30;3.47;;;6.00;99.90;;;;;;4125178;28;20566;-83
2022/01/28 03:42:18;;;;;;;9.85;2.05;;;6.50;99.90;;;;;;4127609;28;20072;-83
2022/01/28 03:44:20;;;;;;;17.77;2.22;;;5.40;99.90;;;;;;4120211;28;20043;-83
2022/01/28 03:46:21;;;;;;;8.98;1.55;;;6.20;99.90;;;;;;4124196;28;20100;-83
2022/01/28 03:48:21;;;;;;;25.25;2.42;;;5.20;99.90;;;;;;4122397;28;20086;-82
2022/01/28 03:50:22;;;;;;;16.30;2.28;;;5.80;99.90;;;;;;4099388;28;20055;-83
2022/01/28 03:52:23;;;;;;;11.63;3.03;;;6.00;99.90;;;;;;4124351;28;20038;-82
2022/01/28 03:54:24;;;;;;;5.10;1.45;;;6.20;99.90;;;;;;4122631;28;20057;-83
2022/01/28 03:56:25;;;;;;;7.70;1.92;;;6.50;99.90;;;;;;4120546;28;20525;-82
2022/01/28 03:58:26;;;;;;;8.13;1.45;;;5.60;99.90;;;;;;4122122;28;20199;-82
2022/01/28 04:00:30;;;;;;;11.70;1.88;;;5.60;99.90;;;;;;4124368;28;20399;-82
2022/01/28 04:02:34;;;;;;;17.63;1.70;;;5.70;99.90;;;;;;4121395;28;20079;-82
2022/01/28 04:11:55;;;;;;;13.98;2.45;;;5.40;99.90;;;;;;4138062;28;19926;-82
2022/01/28 04:14:16;;;;;;;4.53;1.35;;;5.20;99.90;;;;;;4140955;28;20046;-82
2022/01/28 04:18:17;;;;;;;19.67;2.03;;;5.30;99.90;;;;;;4135956;28;20042;-82
2022/01/28 04:20:18;;;;;;;9.10;1.60;;;5.30;99.90;;;;;;4125360;28;20053;-82
2022/01/28 04:22:20;;;;;;;9.63;2.03;;;5.30;99.90;;;;;;4124957;28;20042;-83
2022/01/28 04:24:21;;;;;;;26.92;2.78;;;5.30;99.90;;;;;;4129411;28;20061;-83
2022/01/28 04:26:22;;;;;;;12.73;2.10;;;5.30;99.90;;;;;;4126016;28;20459;-82
2022/01/28 04:28:22;;;;;;;22.45;2.53;;;5.30;99.90;;;;;;4127605;28;20622;-82
2022/01/28 04:30:23;;;;;;;7.85;1.40;;;5.30;99.90;;;;;;4121702;28;20054;-82
2022/01/28 04:32:26;;;;;;;14.65;1.80;;;5.30;99.90;;;;;;4122135;28;20074;-82
2022/01/28 04:34:27;;;;;;;13.02;2.95;;;5.20;99.90;;;;;;4121662;28;20043;-83
2022/01/28 04:36:33;;;;;;;4.82;1.27;;;5.30;99.90;;;;;;4124255;28;20034;-83
2022/01/28 04:40:56;;;;;;;11.45;3.72;;;5.30;99.90;;;;;;4122113;28;20042;-82
2022/01/28 04:45:13;;;;;;;15.35;2.05;;;5.30;99.90;;;;;;4121880;28;20073;-82
2022/01/28 04:47:21;;;;;;;17.45;1.85;;;5.30;99.90;;;;;;4120213;28;20602;-82
2022/01/28 04:49:34;;;;;;;12.40;2.10;;;5.30;99.90;;;;;;4121983;28;20039;-82
2022/01/28 04:54:01;;;;;;;16.70;1.90;;;5.30;99.90;;;;;;4122369;28;20479;-82
2022/01/28 05:26:58;;;;;;;18.25;2.40;;;4.60;99.90;;;;;;4125288;28;20086;-82
2022/01/28 05:28:59;;;;;;;15.70;2.53;;;4.60;99.90;;;;;;4126596;28;20046;-82
2022/01/28 05:31:00;;;;;;;14.70;2.00;;;4.60;99.90;;;;;;4124113;28;20054;-83
2022/01/28 05:33:00;;;;;;;17.20;2.60;;;4.60;99.90;;;;;;4147825;28;20512;-83
2022/01/28 05:35:01;;;;;;;9.90;1.98;;;4.60;99.90;;;;;;4126842;28;20553;-83
2022/01/28 05:37:03;;;;;;;6.72;1.70;;;4.70;99.90;;;;;;4126249;28;20054;-83
2022/01/28 05:39:04;;;;;;;11.00;1.60;;;4.70;99.90;;;;;;4137056;28;20035;-83
2022/01/28 05:41:05;;;;;;;19.25;2.67;;;4.70;99.90;;;;;;4135098;28;20056;-83
2022/01/28 05:43:06;;;;;;;26.02;2.83;;;4.70;99.90;;;;;;4121563;28;20073;-83
2022/01/28 05:45:07;;;;;;;14.38;3.00;;;5.70;99.90;;;;;;4143178;28;20101;-83
2022/01/28 05:47:13;;;;;;;24.35;2.17;;;4.80;99.90;;;;;;4121475;28;20096;-83
2022/01/28 05:49:14;;;;;;;13.73;1.98;;;4.80;99.90;;;;;;4145429;28;20038;-83
2022/01/28 05:51:15;;;;;;;16.85;3.53;;;4.90;99.90;;;;;;4142240;28;20384;-83
2022/01/28 05:53:16;;;;;;;13.02;2.20;;;4.90;99.90;;;;;;4137901;28;20044;-83
2022/01/28 05:55:16;;;;;;;10.75;2.00;;;4.90;99.90;;;;;;4128229;28;20038;-83
2022/01/28 05:57:17;;;;;;;14.63;2.25;;;4.90;99.90;;;;;;4142715;28;20038;-83
2022/01/28 05:59:19;;;;;;;19.25;2.28;;;4.90;99.90;;;;;;4121093;28;20050;-82
2022/01/28 06:01:20;;;;;;;16.45;1.90;;;5.00;99.90;;;;;;4139236;28;20087;-83
2022/01/28 06:03:20;;;;;;;11.32;2.63;;;5.00;99.90;;;;;;4142412;28;20046;-82
2022/01/28 06:05:21;;;;;;;11.82;2.30;;;5.00;99.90;;;;;;4118296;28;20117;-83
2022/01/28 06:07:22;;;;;;;16.98;2.42;;;5.00;99.90;;;;;;4138263;28;20042;-83
2022/01/28 06:09:23;;;;;;;19.52;1.70;;;6.10;99.90;;;;;;4143058;28;20494;-83
2022/01/28 06:11:24;;;;;;;13.30;2.30;;;5.10;99.90;;;;;;4125294;28;20042;-83
2022/01/28 06:13:24;;;;;;;14.82;1.73;;;5.10;99.90;;;;;;4111646;28;20127;-83
2022/01/28 06:15:25;;;;;;;18.33;1.95;;;5.10;99.90;;;;;;4136790;28;20463;-83
2022/01/28 06:17:26;;;;;;;15.85;2.03;;;5.20;99.90;;;;;;4136445;28;20062;-83
2022/01/28 06:19:27;;;;;;;19.33;2.45;;;5.10;99.90;;;;;;4120607;28;20088;-83
2022/01/28 06:21:28;;;;;;;19.35;3.35;;;5.10;99.90;;;;;;4142914;28;20704;-83
2022/01/28 06:23:29;;;;;;;14.20;1.55;;;5.50;99.90;;;;;;4133579;28;20046;-84
2022/01/28 06:25:31;;;;;;;13.98;2.50;;;5.00;99.90;;;;;;4136377;28;20141;-83
2022/01/28 06:27:32;;;;;;;16.15;2.35;;;5.00;99.90;;;;;;4132874;28;20038;-83
2022/01/28 06:29:33;;;;;;;8.65;1.85;;;4.90;99.90;;;;;;4136740;28;20054;-83
2022/01/28 06:31:34;;;;;;;18.27;2.42;;;4.90;99.90;;;;;;4130352;28;20070;-83
2022/01/28 06:33:37;;;;;;;18.67;2.75;;;4.90;99.90;;;;;;4126235;28;20038;-83
2022/01/28 06:35:38;;;;;;;19.60;3.13;;;4.80;99.90;;;;;;4134052;28;20034;-83
2022/01/28 06:37:41;;;;;;;14.43;1.75;;;4.80;99.90;;;;;;4137528;28;20546;-83
2022/01/28 06:39:42;;;;;;;13.70;2.40;;;4.80;99.90;;;;;;4137665;28;20042;-83
2022/01/28 06:41:42;;;;;;;13.00;2.30;;;4.70;99.90;;;;;;4126104;28;20075;-83
2022/01/28 06:43:44;;;;;;;23.45;3.10;;;6.00;99.90;;;;;;4110571;28;20093;-83
2022/01/28 06:45:45;;;;;;;19.00;1.65;;;4.70;99.90;;;;;;4112113;28;20050;-84
2022/01/28 06:47:45;;;;;;;21.05;2.67;;;4.70;99.90;;;;;;4133659;28;20126;-83
2022/01/28 06:49:46;;;;;;;21.02;2.20;;;4.70;99.90;;;;;;4118351;28;20467;-83
2022/01/28 06:51:47;;;;;;;18.88;2.17;;;4.70;99.90;;;;;;4137399;28;20491;-83
2022/01/28 06:53:47;;;;;;;14.27;1.83;;;4.50;99.90;;;;;;4142969;28;20515;-83
2022/01/28 06:55:49;;;;;;;8.52;1.40;;;4.60;99.90;;;;;;4139737;28;20544;-83
2022/01/28 06:57:52;;;;;;;19.98;2.67;;;4.60;99.90;;;;;;4144487;28;20042;-83
2022/01/28 06:59:53;;;;;;;11.35;1.75;;;4.70;99.90;;;;;;4142488;28;20072;-83
2022/01/28 07:01:54;;;;;;;20.98;4.35;;;4.60;99.90;;;;;;4120168;28;20230;-83
2022/01/28 07:03:58;;;;;;;18.70;1.60;;;4.60;99.90;;;;;;4143673;28;20116;-83
2022/01/28 07:05:58;;;;;;;12.88;2.00;;;5.80;99.90;;;;;;4142778;28;20050;-83
2022/01/28 07:07:59;;;;;;;18.15;2.22;;;5.40;99.90;;;;;;4137246;28;20495;-83
2022/01/28 07:10:00;;;;;;;15.52;1.42;;;5.50;99.90;;;;;;4113970;28;20499;-83
2022/01/28 07:12:02;;;;;;;14.50;1.88;;;5.20;99.90;;;;;;4135303;28;20050;-83
2022/01/28 07:14:05;;;;;;;14.43;2.83;;;4.60;99.90;;;;;;4118206;28;20223;-84
2022/01/28 07:16:06;;;;;;;29.58;2.17;;;4.60;99.90;;;;;;4118465;28;20065;-83
2022/01/28 07:18:08;;;;;;;8.15;2.22;;;4.50;99.90;;;;;;4118716;28;20086;-83
2022/01/28 07:20:09;;;;;;;17.80;2.03;;;5.70;99.90;;;;;;4139886;28;20046;-84
2022/01/28 07:22:11;;;;;;;17.80;2.63;;;4.50;99.90;;;;;;4142170;28;20491;-83
2022/01/28 07:24:15;;;;;;;12.27;1.23;;;4.80;99.90;;;;;;4119161;28;20460;-83
2022/01/28 07:26:16;;;;;;;10.07;2.33;;;4.50;99.90;;;;;;4142194;28;20179;-83
2022/01/28 07:28:17;;;;;;;19.35;2.38;;;5.80;99.90;;;;;;4143039;28;20042;-83
2022/01/28 07:30:18;;;;;;;11.48;1.95;;;5.00;99.90;;;;;;4119778;28;20065;-83
2022/01/28 07:32:18;;;;;;;24.60;2.47;;;5.10;99.90;;;;;;4137842;28;20042;-83
2022/01/28 07:34:19;;;;;;;21.27;2.38;;;5.30;99.90;;;;;;4113755;28;20046;-83
2022/01/28 07:36:20;;;;;;;14.90;2.25;;;5.70;99.90;;;;;;4142686;28;20053;-83
2022/01/28 07:38:22;;;;;;;15.48;1.63;;;4.30;99.90;;;;;;4103963;28;20516;-83
2022/01/28 07:40:23;;;;;;;12.57;3.03;;;5.10;99.90;;;;;;4118905;28;20435;-83
2022/01/28 07:42:25;;;;;;;13.80;1.48;;;4.40;99.90;;;;;;4103175;28;20054;-83
2022/01/28 07:44:26;;;;;;;12.75;2.22;;;5.30;99.90;;;;;;4130112;28;20042;-83
2022/01/28 07:46:27;;;;;;;14.82;2.28;;;4.50;99.90;;;;;;4103119;28;20094;-82
2022/01/28 07:48:28;;;;;;;10.07;1.50;;;5.30;99.90;;;;;;4136167;28;20074;-82
2022/01/28 07:50:28;;;;;;;11.50;2.85;;;5.30;99.90;;;;;;4137527;28;20463;-83
2022/01/28 07:52:29;;;;;;;13.07;2.30;;;4.50;99.90;;;;;;4109444;28;20046;-83
2022/01/28 07:54:31;;;;;;;15.18;2.38;;;5.60;99.90;;;;;;4140116;28;20114;-85
2022/01/28 07:56:33;;;;;;;24.83;3.15;;;5.30;99.90;;;;;;4136452;28;20065;-83
2022/01/28 07:58:34;;;;;;;13.98;2.45;;;5.70;99.90;;;;;;4123263;28;20047;-82
2022/01/28 08:00:34;;;;;;;19.65;2.20;;;5.70;99.90;;;;;;4109389;28;20102;-82
2022/01/28 08:02:37;;;;;;;20.95;2.22;;;4.60;99.90;;;;;;4103262;28;20095;-82
2022/01/28 08:04:38;;;;;;;12.85;1.77;;;4.90;99.90;;;;;;4142585;28;20042;-82
2022/01/28 08:06:40;;;;;;;16.70;2.20;;;5.90;99.90;;;;;;4145283;28;20135;-82
2022/01/28 08:08:41;;;;;;;24.48;2.30;;;4.50;99.90;;;;;;4136958;28;20707;-83
2022/01/28 08:10:49;;;;;;;24.80;4.70;;;4.50;99.90;;;;;;4123929;28;20101;-82
2022/01/28 08:12:52;;;;;;;18.98;3.08;;;4.40;99.90;;;;;;4124883;28;20134;-82
2022/01/28 08:14:53;;;;;;;24.83;2.13;;;5.60;99.90;;;;;;4124600;28;20435;-82
2022/01/28 08:16:53;;;;;;;19.27;2.72;;;5.20;99.90;;;;;;4143757;28;20038;-82
2022/01/28 08:18:54;;;;;;;17.95;2.63;;;4.50;99.90;;;;;;4149600;28;20038;-81
2022/01/28 08:20:55;;;;;;;13.10;2.45;;;4.50;99.90;;;;;;4125102;28;20055;-81
2022/01/28 08:22:59;;;;;;;16.63;1.63;;;5.10;99.90;;;;;;4144344;28;20045;-83
2022/01/28 08:25:00;;;;;;;15.23;3.83;;;4.80;99.90;;;;;;4124736;28;20585;-82
2022/01/28 08:27:01;;;;;;;15.80;2.53;;;4.80;99.90;;;;;;4124680;28;20054;-82
2022/01/28 08:29:02;;;;;;;8.88;2.13;;;4.70;99.90;;;;;;4120769;28;20069;-82
2022/01/28 08:31:03;;;;;;;22.80;2.60;;;5.50;99.90;;;;;;4138697;28;20087;-83
2022/01/28 08:33:05;;;;;;;9.68;1.50;;;4.90;99.90;;;;;;4128515;28;20039;-84
2022/01/28 08:35:07;;;;;;;18.75;2.70;;;6.00;99.90;;;;;;4127635;28;20067;-84
2022/01/28 08:37:07;;;;;;;27.45;2.20;;;5.00;99.90;;;;;;4122778;28;20597;-83
2022/01/28 08:39:10;;;;;;;20.55;2.35;;;6.00;99.90;;;;;;4121125;28;20047;-84
2022/01/28 08:41:13;;;;;;;10.65;2.17;;;6.30;99.90;;;;;;4140184;28;20046;-84
2022/01/28 08:43:14;;;;;;;21.65;3.30;;;5.30;99.90;;;;;;4133513;28;20046;-86
2022/01/28 08:45:16;;;;;;;11.45;1.92;;;5.50;99.90;;;;;;4142271;28;20053;-82
2022/01/28 08:47:18;;;;;;;20.75;2.70;;;5.40;99.90;;;;;;4115721;28;20144;-85
2022/01/28 08:49:19;;;;;;;16.95;2.47;;;6.00;99.90;;;;;;4123764;28;20046;-84
2022/01/28 08:51:19;;;;;;;22.67;3.60;;;5.80;99.90;;;;;;4140563;28;20050;-84
2022/01/28 08:53:20;;;;;;;19.33;3.17;;;6.20;99.90;;;;;;4140993;28;20045;-84
2022/01/28 08:55:21;;;;;;;18.67;2.50;;;5.90;99.90;;;;;;4102027;28;20122;-84
2022/01/28 08:57:22;;;;;;;16.42;1.77;;;6.00;99.90;;;;;;4125498;28;20050;-82
2022/01/28 08:59:22;;;;;;;18.45;1.70;;;7.20;99.90;;;;;;4113764;28;20571;-83
2022/01/28 09:01:24;;;;;;;7.40;1.40;;;7.70;99.90;;;;;;4131383;28;20078;-83
2022/01/28 09:03:25;;;;;;;10.30;2.35;;;7.00;99.90;;;;;;4150763;28;20038;-83
2022/01/28 09:05:27;;;;;;;14.45;2.05;;;6.20;99.90;;;;;;4127815;28;20049;-83
2022/01/28 09:07:29;;;;;;;9.50;1.50;;;;;;;;;;4145869;28;20036;-83
2022/01/28 09:09:30;;;;;;;15.25;1.92;;;;;;;;;;4143668;28;20034;-82
2022/01/28 09:11:44;;;;;;;13.57;2.70;;;;;;;;;;4143644;28;20076;-83
2022/01/28 09:13:45;;;;;;;9.90;1.85;;;;;;;;;;4129241;28;20068;-83
2022/01/28 09:15:46;;;;;;;15.60;2.40;;;;;;;;;;4139482;28;20046;-83
2022/01/28 09:17:47;;;;;;;15.27;2.53;;;;;;;;;;4138383;28;20590;-83
2022/01/28 09:19:55;;;;;;;12.80;1.60;;;;;;;;;;4143773;28;20042;-83
2022/01/28 09:21:56;;;;;;;14.20;1.92;;;;;;;;;;4138619;28;20395;-83
2022/01/28 09:23:57;;;;;;;11.48;2.30;;;;;;;;;;4149179;28;20037;-82
2022/01/28 09:25:58;;;;;;;9.90;2.75;;;;;;;;;;4146673;28;20100;-82
2022/01/28 09:28:00;;;;;;;13.50;1.95;;;;;;;;;;4138886;28;20121;-82
2022/01/28 09:30:02;;;;;;;21.00;2.00;;;;;;;;;;4127010;28;20415;-82
2022/01/28 09:32:04;;;;;;;12.35;2.30;;;;;;;;;;4146187;28;20103;-83
2022/01/28 09:34:06;;;;;;;24.50;2.08;;;;;;;;;;4144356;28;20049;-82
2022/01/28 09:36:08;;;;;;;8.50;1.67;;;;;;;;;;4138374;28;20049;-82
2022/01/28 09:38:09;;;;;;;16.38;2.65;;;;;;;;;;4143108;28;20056;-82
2022/01/28 09:40:10;;;;;;;9.85;1.92;;;;;;;;;;4138567;28;20133;-83
2022/01/28 09:42:15;;;;;;;18.60;2.40;;;;;;;;;;4133220;28;20335;-84
2022/01/28 09:44:18;;;;;;;16.05;2.53;;;;;;;;;;4140234;28;20526;-84
2022/01/28 09:46:21;;;;;;;14.38;1.83;;;;;;;;;;4119179;28;20039;-83
2022/01/28 09:48:23;;;;;;;16.27;2.08;;;;;;;;;;4148231;28;20049;-83
2022/01/28 09:50:25;;;;;;;13.77;1.85;;;;;;;;;;4136794;28;20050;-83
2022/01/28 09:52:27;;;;;;;13.93;2.75;;;;;;;;;;4115689;28;20046;-84
2022/01/28 09:54:29;;;;;;;23.13;1.90;;;8.00;99.90;;;;;;4127772;28;20042;-84
2022/01/28 09:56:31;;;;;;;18.00;2.38;;;11.50;98.30;;;;;;4146077;28;20052;-84
2022/01/28 09:58:32;;;;;;;17.75;1.65;;;10.70;98.90;;;;;;4145099;28;20042;-84
2022/01/28 10:00:33;;;;;;;14.95;2.15;;;10.40;99.30;;;;;;4134374;28;20050;-83
2022/01/28 10:02:52;;;;;;;14.63;1.83;;;10.10;99.60;;;;;;4133689;28;20043;-85
2022/01/28 10:04:53;;;;;;;20.67;2.40;;;9.70;98.70;;;;;;4148402;28;20525;-84
2022/01/28 10:06:55;;;;;;;14.80;2.22;;;9.60;99.90;;;;;;4132753;28;20050;-85
2022/01/28 10:08:56;;;;;;;20.95;1.98;;;10.50;99.90;;;;;;4132568;28;20050;-83
2022/01/28 10:11:08;;;;;;;21.90;2.60;;;9.90;99.90;;;;;;4131986;28;20142;-84
2022/01/28 10:13:21;;;;;;;16.45;2.28;;;8.80;99.90;;;;;;4153146;28;20041;-83
2022/01/28 10:15:29;;;;;;;13.73;1.63;;;8.70;99.90;;;;;;4156718;28;20073;-82
2022/01/28 10:17:53;;;;;;;15.88;2.53;;;9.00;99.90;;;;;;4150593;28;20046;-84
2022/01/28 10:20:06;;;;;;;13.82;2.30;;;8.50;99.90;;;;;;4149900;28;20054;-84
2022/01/28 10:22:18;;;;;;;20.40;3.35;;;8.50;99.90;;;;;;4124020;28;20488;-84
2022/01/28 10:24:21;;;;;;;6.25;1.52;;;8.70;99.90;;;;;;4133688;28;20042;-83
2022/01/28 10:26:33;;;;;;;15.63;1.90;;;9.20;99.90;;;;;;4116431;28;20405;-83
2022/01/28 10:28:35;;;;;;;17.20;2.35;;;8.40;99.90;;;;;;4145952;28;20045;-84
2022/01/28 10:30:38;;;;;;;12.80;2.47;;;8.40;99.90;;;;;;4149628;28;20077;-83
2022/01/28 10:32:39;;;;;;;14.85;1.48;;;8.30;99.90;;;;;;4132186;28;20081;-84
2022/01/28 10:34:44;;;;;;;14.95;1.90;;;8.70;99.90;;;;;;4149975;28;20046;-84
2022/01/28 10:36:46;;;;;;;10.63;1.52;;;8.20;99.90;;;;;;4149708;28;20046;-84
2022/01/28 10:38:47;;;;;;;12.10;1.70;;;8.30;99.90;;;;;;4150152;28;20513;-83
2022/01/28 10:41:05;;;;;;;13.32;2.65;;;8.70;99.90;;;;;;4134968;28;20049;-83
2022/01/28 10:43:08;;;;;;;19.08;1.90;;;8.20;99.90;;;;;;4120192;28;20118;-83
2022/01/28 10:45:12;;;;;;;16.80;2.10;;;8.70;99.90;;;;;;4149157;28;20050;-83
2022/01/28 10:47:13;;;;;;;14.70;2.47;;;9.00;99.90;;;;;;4132085;28;20054;-83
2022/01/28 10:49:13;;;;;;;14.57;1.95;;;8.70;99.90;;;;;;4150423;28;20187;-84
2022/01/28 10:51:20;;;;;;;18.40;3.15;;;8.20;99.90;;;;;;4149230;28;20080;-84
2022/01/28 10:53:21;;;;;;;22.70;2.25;;;8.20;99.90;;;;;;4133990;28;20483;-83
2022/01/28 10:55:22;;;;;;;15.90;2.80;;;8.10;99.90;;;;;;4106988;28;20102;-84
2022/01/28 10:57:24;;;;;;;14.57;1.73;;;8.30;99.90;;;;;;4149121;28;20132;-84
2022/01/28 10:59:30;;;;;;;16.42;2.08;;;8.30;99.90;;;;;;4149058;28;20411;-84
2022/01/28 11:01:31;;;;;;;10.25;2.58;;;8.30;99.90;;;;;;4149576;28;20038;-85
2022/01/28 11:03:32;;;;;;;13.93;2.13;;;8.30;99.80;;;;;;4149589;28;20042;-84
2022/01/28 11:05:35;;;;;;;14.05;1.58;;;8.50;99.90;;;;;;4149155;28;20088;-84
2022/01/28 11:07:36;;;;;;;19.77;3.55;;;8.50;99.60;;;;;;4149714;28;20042;-84
2022/01/28 11:09:40;;;;;;;14.55;2.03;;;9.60;99.70;;;;;;4128374;28;20070;-84
2022/01/28 11:11:41;;;;;;;14.13;1.58;;;9.00;99.30;;;;;;4117116;28;20053;-85
2022/01/28 11:13:43;;;;;;;13.85;1.95;;;9.10;99.10;;;;;;4144464;28;20120;-84
2022/01/28 11:15:45;;;;;;;11.57;1.85;;;9.90;99.10;;;;;;4159870;28;20051;-83
2022/01/28 11:17:51;;;;;;;12.55;2.45;;;9.30;99.10;;;;;;4132136;28;20120;-83
2022/01/28 11:19:59;;;;;;;8.93;1.50;;;9.10;98.70;;;;;;4149292;28;20042;-83
2022/01/28 11:22:13;;;;;;;13.70;1.63;;;9.40;98.70;;;;;;4123427;28;20093;-85
2022/01/28 11:24:31;;;;;;;15.95;2.33;;;9.10;98.20;;;;;;4149908;28;20502;-85
2022/01/28 11:26:49;;;;;;;7.20;1.48;;;9.10;98.70;;;;;;4131905;28;20164;-84
2022/01/28 11:28:55;;;;;;;19.83;3.08;;;8.90;97.60;;;;;;4148143;28;20112;-84
2022/01/28 11:30:57;;;;;;;12.02;1.80;;;9.20;98.80;;;;;;4149590;28;20120;-84
2022/01/28 11:33:02;;;;;;;10.55;2.25;;;8.70;98.40;;;;;;4149083;28;20053;-84
2022/01/28 11:35:08;;;;;;;6.00;0.98;;;9.60;98.60;;;;;;4135903;28;20156;-84
2022/01/28 11:37:12;;;;;;;17.38;1.65;;;8.60;98.50;;;;;;4130937;28;20062;-84
2022/01/28 11:39:33;;;;;;;9.93;2.70;;;9.30;98.80;;;;;;4147886;28;20502;-85
2022/01/28 11:41:35;;;;;;;19.00;1.80;;;8.60;98.10;;;;;;4147444;28;20046;-85
2022/01/28 11:43:54;;;;;;;18.30;1.77;;;9.30;98.80;;;;;;4113863;28;20456;-85
2022/01/28 11:46:09;;;;;;;14.23;2.08;;;8.90;98.30;;;;;;4140964;28;20085;-84
2022/01/28 11:48:12;;;;;;;14.15;2.33;;;9.10;97.50;;;;;;4131589;28;20051;-84
2022/01/28 11:50:17;;;;;;;15.77;1.90;;;9.40;98.20;;;;;;4131189;28;20054;-83
2022/01/28 11:52:27;;;;;;;9.40;1.25;;;9.60;97.70;;;;;;4133197;28;20050;-84
2022/01/28 11:54:35;;;;;;;14.32;1.50;;;10.00;96.90;;;;;;4131850;28;20050;-84
2022/01/28 11:56:40;;;;;;;7.97;1.48;;;;;;;;;;4132687;28;20042;-84
2022/01/28 11:58:54;;;;;;;16.20;1.63;;;;;;;;;;4132410;28;20046;-85
2022/01/28 12:00:55;;;;;;;11.70;1.85;;;;;;;;;;4116319;28;20086;-84
2022/01/28 12:02:58;;;;;;;11.07;2.22;;;;;;;;;;4132992;28;20403;-85
2022/01/28 12:04:59;;;;;;;9.38;1.40;;;;;;;;;;4115682;28;20042;-83
2022/01/28 12:07:09;;;;;;;13.48;1.90;;;;;;;;;;4132664;28;20134;-84
2022/01/28 12:09:13;;;;;;;11.13;1.55;;;;;;;;;;4132596;28;20046;-84
2022/01/28 12:11:34;;;;;;;17.60;2.22;;;;;;;;;;4115836;28;20057;-84
2022/01/28 12:14:03;;;;;;;12.45;1.38;;;;;;;;;;4116334;28;20042;-83
2022/01/28 12:18:10;;;;;;;9.95;2.42;;;10.90;97.00;;;;;;4143108;28;20157;-84